Humidity-temperature Sensor

Selected Measurement Type: Air Temperature

 
Air Temperature [°C]     6 entries per hour
Showing data from 12/18/2022 (00:00:00 Z) to 12/17/2022 (00:01:00 Z)
Previous Next [ Day | 3-Days | 7-Days ]
First Last
Prev [ Day | 3-Days | 7-Days ] Next
First Last

Start Time:     :
End Time:     :     
Time (in GMT) :00 :50 :40 :30 :20 :10
Previous Next [ Day | 3-Days | 7-Days ]
First Last
Prev [ Day | 3-Days | 7-Days ] Next
First Last


123 => good data
MM => data is determined as missing
-- => data not received/configured
Back to Top Back to Top
12/18/2022 00:00 to 23:10 24.91 25.04 25.50 25.65 25.72 25.59
12/17/2022 23:00 to 22:10 25.47 25.53 25.34 25.23 25.33 25.33
12/17/2022 22:00 to 21:10 25.22 25.35 25.15 25.39 25.37 25.37
12/17/2022 21:00 to 20:10 25.26 25.18 25.23 25.03 25.34 25.33
12/17/2022 20:00 to 19:10 25.28 25.33 25.10 25.28 25.00 25.11
12/17/2022 19:00 to 18:10 25.05 24.85 25.06 25.02 24.95 25.21
12/17/2022 18:00 to 17:10 25.08 24.96 25.00 25.02 24.96 25.07
12/17/2022 17:00 to 16:10 24.97 25.17 25.37 25.44 25.35 25.32
12/17/2022 16:00 to 15:10 25.42 25.63 25.49 25.52 25.90 25.93
12/17/2022 15:00 to 14:10 25.74 25.75 25.76 25.72 25.83 25.71
12/17/2022 14:00 to 13:10 25.70 25.59 25.61 25.80 25.67 25.64
12/17/2022 13:00 to 12:10 25.46 25.60 25.56 25.64 25.47 25.41
12/17/2022 12:00 to 11:10 25.44 25.23 25.16 25.08 24.97 24.74
12/17/2022 11:00 to 10:10 24.99 24.97 24.91 24.93 24.86 24.85
12/17/2022 10:00 to 9:10 24.44 24.33 24.25 24.47 24.60 24.61
12/17/2022 09:00 to 8:10 24.38 24.42 24.30 24.13 24.32 24.33
12/17/2022 08:00 to 7:10 24.21 24.04 23.98 24.32 24.32 23.99
12/17/2022 07:00 to 6:10 24.27 24.02 24.22 24.23 24.24 24.38
12/17/2022 06:00 to 5:10 24.34 24.33 24.32 24.51 24.45 24.44
12/17/2022 05:00 to 4:10 24.27 24.16 24.28 24.27 24.33 24.30
12/17/2022 04:00 to 3:10 24.35 24.42 24.63 24.38 24.50 24.42
12/17/2022 03:00 to 2:10 24.50 24.69 24.51 24.72 24.81 24.94
12/17/2022 02:00 to 1:10 24.75 24.64 24.82 24.96 24.87 24.72
12/17/2022 01:00 to 0:10 24.78 24.80 24.63 24.94 24.95 24.95